Gaz Palmyra — 3FCO4 — position and weather

sailwx.info

Track history (hours):
 
Tides and Currents Weather Stations Pressure Air Temp Water Temp Dewpoint Dewpoint Depression Visibility Wind Speed Wind Dir Waves Ship Positions

Gaz Palmyra

Last reported at 2016-Jun-29 04:33 UTC. Time now 2016-Jun-29 05:42 UTC.
Position N 37°10' E 005°25'.

Length 137 m; draft 5.9 m.

Type: Ship (hazmat cat C). MMSI: 353247000.

Date/timePositionNaut miles runAvg speedWind from/ knotsBaromVisibWave heightAir tempDewpointWater temp
2016-Jun-29 04:33N 37°10' E 005°25'14 9.6
2016-Jun-29 03:07N 37°10' E 005°08'25 9.5
2016-Jun-29 00:28N 37°10' E 004°36'9 9.3
2016-Jun-28 23:33N 37°09' E 004°26'9 8.9
2016-Jun-28 22:33N 37°09' E 004°14'8 8.4
2016-Jun-28 21:33N 37°08' E 004°04'9 8.5
2016-Jun-28 20:33N 37°06' E 003°54'8 7.9
2016-Jun-28 19:33N 37°06' E 003°44'8 7.5
2016-Jun-28 18:33N 37°05' E 003°34'8 7.8
2016-Jun-28 17:33N 37°03' E 003°25'9 8.6
2016-Jun-28 16:33N 36°59' E 003°15'9 8.6
2016-Jun-28 15:33N 36°52' E 003°09'  
2016-Jun-24 04:28N 36°53' E 003°04'910.2
2016-Jun-24 03:33N 36°56' E 002°53'1010.0
2016-Jun-24 02:33N 36°56' E 002°40'1110.7
2016-Jun-24 01:33N 36°55' E 002°27'1111.0
2016-Jun-24 00:33N 36°53' E 002°13'1110.8
2016-Jun-23 23:33N 36°51' E 001°60'1110.7
2016-Jun-23 22:33N 36°50' E 001°47'1110.5
2016-Jun-23 21:33N 36°49' E 001°34'1110.5
2016-Jun-23 20:33N 36°47' E 001°21'1110.8
2016-Jun-23 19:33N 36°46' E 001°07'1010.2
2016-Jun-23 18:33N 36°43' E 000°55'1010.5
2016-Jun-23 17:33N 36°37' E 000°44'1110.5
2016-Jun-23 16:33N 36°32' E 000°33'1110.5
2016-Jun-23 15:33N 36°24' E 000°24'10 9.8
2016-Jun-23 14:33N 36°17' E 000°15'10 9.7
2016-Jun-23 13:34N 36°10' E 000°07'12 9.7
2016-Jun-23 12:19N 36°01' W 000°03'810.2
2016-Jun-23 11:33N 35°56' W 000°10'8 8.2
2016-Jun-23 10:33N 35°49' W 000°15'0 0.0
2016-Jun-22 17:06N 35°49' W 000°15'2 2.8
2016-Jun-22 16:33N 35°50' W 000°14'1 1.5
2016-Jun-22 15:33N 35°51' W 000°12'3 3.4
2016-Jun-22 14:33N 35°54' W 000°14'3 2.4
2016-Jun-22 13:29N 35°55' W 000°11'3 2.3
2016-Jun-22 12:20N 35°57' W 000°08'2 2.0
2016-Jun-22 11:33N 35°58' W 000°07'3 3.3
2016-Jun-22 10:33N 35°56' W 000°10'1 1.1
2016-Jun-22 09:29N 35°56' W 000°09'2 1.6
2016-Jun-22 08:33N 35°57' W 000°08'1 1.3
2016-Jun-22 07:33N 35°58' W 000°06'6 5.7
2016-Jun-22 06:27N 35°58' W 000°14'4 4.7
2016-Jun-22 05:32N 35°59' W 000°19'2 1.9
2016-Jun-22 04:31N 35°60' W 000°17'2 1.8
2016-Jun-22 03:32N 36°00' W 000°14'2 1.9
2016-Jun-22 02:29N 36°01' W 000°12'2 1.9
2016-Jun-22 01:33N 36°01' W 000°10'2 2.1
2016-Jun-22 00:33N 36°02' W 000°08'2 2.0
2016-Jun-21 23:33N 36°00' W 000°09'5 5.3
2016-Jun-21 22:33N 35°58' W 000°14'10 2.5
2016-Jun-21 18:33N 36°04' W 000°05'7 7.2
2016-Jun-21 17:31N 35°57' W 000°07'3 2.4
2016-Jun-21 16:15N 35°54' W 000°09'2 2.4
2016-Jun-21 15:34N 35°56' W 000°08'3 2.7
2016-Jun-21 14:29N 35°58' W 000°06'3 3.2
2016-Jun-21 13:32N 35°60' W 000°09'4 0.4
2016-Jun-21 03:30N 36°04' W 000°12'6 6.1
2016-Jun-21 02:33N 36°06' W 000°18'2 1.9
2016-Jun-21 01:32N 36°06' W 000°16'2 2.0
2016-Jun-21 00:33N 36°06' W 000°13'2 2.2
2016-Jun-20 23:33N 36°06' W 000°11'2 2.3
2016-Jun-20 22:30N 36°07' W 000°08'5 5.1
2016-Jun-20 21:32N 36°02' W 000°09'2 0.1
2016-Jun-20 03:33N 36°03' W 000°07'1 1.2
2016-Jun-20 02:24N 36°03' W 000°05'7 7.2
2016-Jun-20 01:26N 35°57' W 000°02'1 1.0
2016-Jun-20 00:11N 35°58' W 000°03'3 1.3
2016-Jun-19 22:13N 35°60' W 000°05'1 0.8
2016-Jun-19 21:33N 36°00' W 000°05'1 0.8
2016-Jun-19 20:33N 36°01' W 000°05'1 1.4
2016-Jun-19 19:33N 36°02' W 000°06'9 8.8
2016-Jun-19 18:33N 36°00' W 000°17'2 1.5
2016-Jun-19 17:33N 35°60' W 000°19'  
Track history (hours):
 
Tides and Currents Weather Stations Pressure Air Temp Water Temp Dewpoint Dewpoint Depression Visibility Wind Speed Wind Dir Waves Ship Positions

Gaz Palmyra

Last reported at 2016-Jun-29 04:33 UTC. Time now 2016-Jun-29 05:42 UTC.
Position N 37°10' E 005°25'.

Length 137 m; draft 5.9 m.

Type: Ship (hazmat cat C). MMSI: 353247000.

Date/timePositionNaut miles runAvg speedWind from/ knotsBaromVisibWave heightAir tempDewpointWater temp
2016-Jun-29 04:33N 37°10' E 005°25'14 9.6
2016-Jun-29 03:07N 37°10' E 005°08'25 9.5
2016-Jun-29 00:28N 37°10' E 004°36'9 9.3
2016-Jun-28 23:33N 37°09' E 004°26'9 8.9
2016-Jun-28 22:33N 37°09' E 004°14'8 8.4
2016-Jun-28 21:33N 37°08' E 004°04'9 8.5
2016-Jun-28 20:33N 37°06' E 003°54'8 7.9
2016-Jun-28 19:33N 37°06' E 003°44'8 7.5
2016-Jun-28 18:33N 37°05' E 003°34'8 7.8
2016-Jun-28 17:33N 37°03' E 003°25'9 8.6
2016-Jun-28 16:33N 36°59' E 003°15'9 8.6
2016-Jun-28 15:33N 36°52' E 003°09'  
2016-Jun-24 04:28N 36°53' E 003°04'910.2
2016-Jun-24 03:33N 36°56' E 002°53'1010.0
2016-Jun-24 02:33N 36°56' E 002°40'1110.7
2016-Jun-24 01:33N 36°55' E 002°27'1111.0
2016-Jun-24 00:33N 36°53' E 002°13'1110.8
2016-Jun-23 23:33N 36°51' E 001°60'1110.7
2016-Jun-23 22:33N 36°50' E 001°47'1110.5
2016-Jun-23 21:33N 36°49' E 001°34'1110.5
2016-Jun-23 20:33N 36°47' E 001°21'1110.8
2016-Jun-23 19:33N 36°46' E 001°07'1010.2
2016-Jun-23 18:33N 36°43' E 000°55'1010.5
2016-Jun-23 17:33N 36°37' E 000°44'1110.5
2016-Jun-23 16:33N 36°32' E 000°33'1110.5
2016-Jun-23 15:33N 36°24' E 000°24'10 9.8
2016-Jun-23 14:33N 36°17' E 000°15'10 9.7
2016-Jun-23 13:34N 36°10' E 000°07'12 9.7
2016-Jun-23 12:19N 36°01' W 000°03'810.2
2016-Jun-23 11:33N 35°56' W 000°10'8 8.2
2016-Jun-23 10:33N 35°49' W 000°15'0 0.0
2016-Jun-22 17:06N 35°49' W 000°15'2 2.8
2016-Jun-22 16:33N 35°50' W 000°14'1 1.5
2016-Jun-22 15:33N 35°51' W 000°12'3 3.4
2016-Jun-22 14:33N 35°54' W 000°14'3 2.4
2016-Jun-22 13:29N 35°55' W 000°11'3 2.3
2016-Jun-22 12:20N 35°57' W 000°08'2 2.0
2016-Jun-22 11:33N 35°58' W 000°07'3 3.3
2016-Jun-22 10:33N 35°56' W 000°10'1 1.1
2016-Jun-22 09:29N 35°56' W 000°09'2 1.6
2016-Jun-22 08:33N 35°57' W 000°08'1 1.3
2016-Jun-22 07:33N 35°58' W 000°06'6 5.7
2016-Jun-22 06:27N 35°58' W 000°14'4 4.7
2016-Jun-22 05:32N 35°59' W 000°19'2 1.9
2016-Jun-22 04:31N 35°60' W 000°17'2 1.8
2016-Jun-22 03:32N 36°00' W 000°14'2 1.9
2016-Jun-22 02:29N 36°01' W 000°12'2 1.9
2016-Jun-22 01:33N 36°01' W 000°10'2 2.1
2016-Jun-22 00:33N 36°02' W 000°08'2 2.0
2016-Jun-21 23:33N 36°00' W 000°09'5 5.3
2016-Jun-21 22:33N 35°58' W 000°14'10 2.5
2016-Jun-21 18:33N 36°04' W 000°05'7 7.2
2016-Jun-21 17:31N 35°57' W 000°07'3 2.4
2016-Jun-21 16:15N 35°54' W 000°09'2 2.4
2016-Jun-21 15:34N 35°56' W 000°08'3 2.7
2016-Jun-21 14:29N 35°58' W 000°06'3 3.2
2016-Jun-21 13:32N 35°60' W 000°09'4 0.4
2016-Jun-21 03:30N 36°04' W 000°12'6 6.1
2016-Jun-21 02:33N 36°06' W 000°18'2 1.9
2016-Jun-21 01:32N 36°06' W 000°16'2 2.0
2016-Jun-21 00:33N 36°06' W 000°13'2 2.2
2016-Jun-20 23:33N 36°06' W 000°11'2 2.3
2016-Jun-20 22:30N 36°07' W 000°08'5 5.1
2016-Jun-20 21:32N 36°02' W 000°09'2 0.1
2016-Jun-20 03:33N 36°03' W 000°07'1 1.2
2016-Jun-20 02:24N 36°03' W 000°05'7 7.2
2016-Jun-20 01:26N 35°57' W 000°02'1 1.0
2016-Jun-20 00:11N 35°58' W 000°03'3 1.3
2016-Jun-19 22:13N 35°60' W 000°05'1 0.8
2016-Jun-19 21:33N 36°00' W 000°05'1 0.8
2016-Jun-19 20:33N 36°01' W 000°05'1 1.4
2016-Jun-19 19:33N 36°02' W 000°06'9 8.8
2016-Jun-19 18:33N 36°00' W 000°17'2 1.5
2016-Jun-19 17:33N 35°60' W 000°19'  

Dump ship's entire track history